AirNav   Everest Fuels
 
 1034 users online  

44T Hoskins Field Airport
Olympia, Washington, USA

GOING TO OLYMPIA?


FAA INFORMATION EFFECTIVE 10 SEPTEMBER 2020

Location

FAA Identifier: 44T
Lat/Long: 46-59-32.6000N 122-49-40.2000W
46-59.543333N 122-49.670000W
46.9923889,-122.8278333
(estimated)
Elevation: 213 ft. / 65 m (estimated)
Variation: 20E (1985)
From city: 5 miles SE of OLYMPIA, WA
Time zone: UTC -7 (UTC -8 during Standard Time)
Zip code: 98513

Airport Operations

Airport use: Open to the public
Activation date: 01/1963
Control tower: no
ARTCC: SEATTLE CENTER
FSS: SEATTLE FLIGHT SERVICE STATION
NOTAMs facility: SEA (NOTAM-D service available)
Attendance: UNATNDD
Wind indicator: yes
Segmented circle: no

Airport Communications

CTAF: 122.9
WX ASOS at OLM (3 nm SW): 135.725 (360-754-0781)
WX ASOS at TCM (17 nm NE): PHONE 253-982-3434
WX ASOS at TIW (19 nm NE): 124.05 (253-858-6507)
WX ASOS at SHN (19 nm NW): 119.275 (360 426-6332)
WX AWOS-3 at CLS (20 nm S): 128.025 (360-740-5164)

Nearby radio navigation aids

VOR radial/distance  VOR name  Freq  Var
OLMr049/3.3OLYMPIA VORTAC113.4019E
TCMr222/17.2MCCHORD VORTAC109.6015E
SEAr199/33.9SEATTLE VORTAC116.8019E

Airport Services

Airframe service: NONE
Powerplant service: NONE

Runway Information

Runway 7/25

Dimensions: 2015 x 116 ft. / 614 x 35 m
Surface: turf, in good condition
RUNWAY 7  RUNWAY 25
Latitude: 46-59.547070N46-59.541005N
Longitude: 122-49.912752W122-49.428262W
Elevation: 202.0 ft.212.0 ft.
Traffic pattern: leftleft
Runway heading: 071 magnetic, 091 true251 magnetic, 271 true
Obstructions: 66 ft. trees, 560 ft. from runway, 60 ft. right of centerline, 8:1 slope to clear44 ft. trees

Airport Ownership and Management from official FAA records

Ownership: Privately-owned
Owner: CHAMBERS ESTATE ASSOCIATION
4418 62ND AVENUE SE
OLYMPIA, WA 98513-4906
Phone 360-491-6723
Manager: JOHN MC CLAIN
4418 62ND AVENUE SE
OLYMPIA, WA 98513-4906
Phone 360-491-6723

Airport Operational Statistics

Aircraft based on the field: 10
Single engine airplanes: 10
    
Aircraft operations: avg 51/month *
82% local general aviation
18% transient general aviation
* for 12-month period ending 31 December 2017

Additional Remarks

RCMD LAND RY 07, DEPART RY 25 WHEN WIND COND PERMITS.
RY 07/25 NO LINE OF SIGHT BTN RY ENDS.
NO HELICOPTERS. NO ULTRALGTS. NOISE ABATEMENT PROCEDURES IN EFFECT; CALL AMGR 360-491-6723. GEESE & DUCKS ON & INVOF ARPT.
FOR CD CTC SEATTLE APCH AT 206-214-4723.

Instrument Procedures

There are no published instrument procedures at 44T.

Some nearby airports with instrument procedures:

KOLM - Olympia Regional Airport (3 nm SW)
KGRF - Gray Army Airfield (Joint Base Lewis-McChord) (11 nm NE)
KTCM - McChord Field Airport (Joint Base Lewis-McChord) (17 nm NE)
KTIW - Tacoma Narrows Airport (19 nm NE)
KSHN - Sanderson Field Airport (19 nm NW)
KCLS - Chehalis-Centralia Airport (20 nm S)
 
Loc | Ops | Rwys | IFR | FBO | Links
Com | Nav | Svcs | Stats | Notes
Area around 44T (Hoskins Field Airport)
 
Road maps at: MapQuest Bing Google
 
Aerial photo
WARNING: Photo may not be current or correct
Aerial photo of 44T (Hoskins Field Airport)
Do you have a better or more recent aerial photo of Hoskins Field Airport that you would like to share? If so, please send us your photo.

 
Sectional chart

 
Airport distance calculator
Flying to Hoskins Field Airport? Find the distance to fly.

From to 44T

Sunrise and sunset
Times for 19-Sep-2020
 Local
(UTC-7)
 Zulu
(UTC)
Morning civil twilight06:2613:26
Sunrise06:5713:57
Sunset19:1302:13
Evening civil twilight19:4302:43

Current date and time
Zulu (UTC)  19-Sep-2020 23:24:48
Local (UTC-7)  19-Sep-2020 16:24:48
 
METAR
KOLM 
3nm SW 
192254Z 25008KT 10SM FU SCT035 OVC055 21/12 A3006 RMK AO2 SLP177 T02060122
KGRF 
12nm NE 
192209Z AUTO 17009KT 10SM SCT025 SCT200 20/20 A3005 RMK AO2 RAE2159 SLP179 $
KTCM 
17nm NE 
192258Z AUTO 22009KT 10SM FEW028 SCT035 BKN043 BKN080 21/14 A3005 RMK AO2 SLP179 T02080144 $
KSHN 
19nm NW 
192253Z AUTO 24017KT 10SM FEW028 SCT085 21/13 A3003 RMK AO2 SLP169 T02060133
KTIW 
19nm NE 
192253Z 22008KT 10SM SCT036 21/12 A3004 RMK AO2 SLP171 T02060122
KCLS 
20nm S 
192255Z AUTO VRB06G13KT 10SM SCT038 SCT049 BKN090 22/15 A3007 RMK AO2
TAF
KOLM 
3nm SW 
191728Z 1918/2018 21007KT P6SM VCSH SCT008 OVC020 FM192000 21008KT P6SM VCSH SCT020 BKN040 FM200400 21003KT P6SM OVC030 FM200900 VRB03KT 2SM BR OVC010
KGRF 
12nm NE 
192100Z 1921/2103 23010G15KT 8000 -RA OVC008 QNH3005INS BECMG 2002/2003 21006KT 9999 VCSH BKN015 QNH3007INS BECMG 2017/2018 30003KT 9000 BR BKN010 QNH3008INS TX19/2021Z TN14/2012Z
KTCM 
17nm NE 
192100Z 1921/2103 22012KT 9999 VCSH BKN020 OVC040 QNH3005INS BECMG 2005/2006 21006KT 9999 NSW BKN015 OVC025 QNH3009INS BECMG 2011/2012 22004KT 9999 OVC008 QNH3010INS BECMG 2015/2016 22006KT 9999 OVC015 QNH3011INS BECMG 2018/2019 26010KT 9999 BKN020 OVC040 QNH3002INS TX21/1923Z TN12/2013Z
NOTAMs
Click for the latest NOTAMs
NOTAMs are issued by the DoD/FAA and will open in a separate window not controlled by AirNav.

 

 
 

Would you like to see your business listed on this page?

 If your business provides an interesting product or service to pilots, flight crews, aircraft, or users of the Hoskins Field Airport, you should consider listing it here.  To start the listing process, click on the button below
 
Add a business
 

Other Pages about Hoskins Field Airport

Update a link
 
Copyright © AirNav, LLC. All rights reserved. Privacy Policy  Contact